Redcliff, Canada
Current Conditions -  °F | °C
As of 3:00 PM on Tuesday 21 Oct 2014 (Local Time) from CYXH Reporting Station
Rain Showers Rain Showers  
Wind Chill: 57°   Ceiling: 7500
Heat Index: 57°   Visibility: 30mi
Dew Point: 46°   Wind: 12mph
Humidity: 67%   Direction: 230°SW
Pressure: 29.64"   Gusts: NA
Location:  50.08°N, 110.79°W
Report Text: CYXH 212100Z 23010KT 30SM -SHRA OVC075 14/08 A2964 RMK AC8 PRESRR SLP047 DENSITY ALT 3000FT
Loading
Personal Weather Stations






























Interactive Weather Map
Tropical Storm Tracking
New forecast layout! Learn more

10-Day Weather Forecast

Advertisements
Track Severe Weather on mobile